sensor_id;sensor_type;location;lat;lon;timestamp;pressure;altitude;pressure_sealevel;temperature;humidity
70758;BME280;59316;52.964;7.102;2022-12-07T11:23:48;101409.94;;;4.69;nan
70758;BME280;59316;52.964;7.102;2022-12-07T11:40:26;101398.97;;;4.34;nan
70758;BME280;59316;52.964;7.102;2022-12-07T11:45:32;101392.06;;;4.33;nan
70758;BME280;59316;52.964;7.102;2022-12-07T11:50:42;101391.81;;;4.41;nan
70758;BME280;59316;52.964;7.102;2022-12-07T12:00:56;101375.34;;;4.42;nan
70758;BME280;59316;52.964;7.102;2022-12-07T12:06:05;101384.53;;;4.25;nan
70758;BME280;59316;52.964;7.102;2022-12-07T12:11:39;101384.34;;;4.32;nan
70758;BME280;59316;52.964;7.102;2022-12-07T12:17:02;101366.91;;;4.35;nan
70758;BME280;59316;52.964;7.102;2022-12-07T12:22:15;101360.13;;;4.31;nan
70758;BME280;59316;52.964;7.102;2022-12-07T12:27:26;101354.88;;;4.06;nan
70758;BME280;59316;52.964;7.102;2022-12-07T12:32:36;101341.28;;;3.98;nan
70758;BME280;59316;52.964;7.102;2022-12-07T12:37:42;101348.34;;;3.94;nan
70758;BME280;59316;52.964;7.102;2022-12-07T13:03:30;101330.19;;;3.37;nan
70758;BME280;59316;52.964;7.102;2022-12-07T13:08:34;101318.38;;;3.27;nan
70758;BME280;59316;52.964;7.102;2022-12-07T13:13:38;101316.19;;;3.13;nan
70758;BME280;59316;52.964;7.102;2022-12-07T13:18:40;101315.72;;;3.00;nan
70758;BME280;59316;52.964;7.102;2022-12-07T13:28:50;101311.91;;;2.82;nan
70758;BME280;59316;52.964;7.102;2022-12-07T13:33:54;101315.38;;;2.83;nan
70758;BME280;59316;52.964;7.102;2022-12-07T13:38:59;101299.66;;;2.87;nan
70758;BME280;59316;52.964;7.102;2022-12-07T13:44:07;101305.97;;;2.78;nan
70758;BME280;59316;52.964;7.102;2022-12-07T13:49:38;101300.78;;;2.78;nan
70758;BME280;59316;52.964;7.102;2022-12-07T13:54:45;101296.34;;;2.82;nan
70758;BME280;59316;52.964;7.102;2022-12-07T13:59:48;101294.09;;;3.01;nan
70758;BME280;59316;52.964;7.102;2022-12-07T14:04:51;101296.22;;;3.17;nan
70758;BME280;59316;52.964;7.102;2022-12-07T14:09:59;101302.28;;;3.17;nan
70758;BME280;59316;52.964;7.102;2022-12-07T14:15:03;101287.03;;;3.06;nan
70758;BME280;59316;52.964;7.102;2022-12-07T14:25:33;101283.28;;;2.87;nan
70758;BME280;59316;52.964;7.102;2022-12-07T14:30:51;101296.91;;;2.93;nan
70758;BME280;59316;52.964;7.102;2022-12-07T14:35:54;101297.50;;;3.02;nan
70758;BME280;59316;52.964;7.102;2022-12-07T14:40:57;101304.56;;;2.97;nan
70758;BME280;59316;52.964;7.102;2022-12-07T14:45:59;101302.81;;;2.67;nan
70758;BME280;59316;52.964;7.102;2022-12-07T14:51:02;101299.09;;;2.46;nan
70758;BME280;59316;52.964;7.102;2022-12-07T14:56:25;101278.72;;;2.32;nan
70758;BME280;59316;52.964;7.102;2022-12-07T15:01:27;101272.19;;;2.19;nan
70758;BME280;59316;52.964;7.102;2022-12-07T15:06:30;101271.19;;;1.90;nan
70758;BME280;59316;52.964;7.102;2022-12-07T15:11:32;101284.09;;;1.55;nan
70758;BME280;59316;52.964;7.102;2022-12-07T15:16:36;101280.75;;;1.50;nan
70758;BME280;59316;52.964;7.102;2022-12-07T15:21:58;101283.97;;;1.22;nan
70758;BME280;59316;52.964;7.102;2022-12-07T15:27:00;101277.22;;;1.15;nan
70758;BME280;59316;52.964;7.102;2022-12-07T15:32:03;101271.47;;;1.04;nan
70758;BME280;59316;52.964;7.102;2022-12-07T15:37:06;101269.72;;;1.04;nan
70758;BME280;59316;52.964;7.102;2022-12-07T15:42:08;101260.69;;;1.22;nan
70758;BME280;59316;52.964;7.102;2022-12-07T15:47:10;101244.50;;;1.52;nan
70758;BME280;59316;52.964;7.102;2022-12-07T15:52:13;101248.34;;;1.71;nan
70758;BME280;59316;52.964;7.102;2022-12-07T15:57:15;101234.63;;;1.69;nan
70758;BME280;59316;52.964;7.102;2022-12-07T16:02:21;101229.44;;;1.69;nan
70758;BME280;59316;52.964;7.102;2022-12-07T16:07:24;101221.38;;;1.45;nan
70758;BME280;59316;52.964;7.102;2022-12-07T16:12:26;101227.03;;;1.25;nan
70758;BME280;59316;52.964;7.102;2022-12-07T16:17:29;101217.44;;;1.30;nan
70758;BME280;59316;52.964;7.102;2022-12-07T16:22:31;101222.75;;;1.24;nan
70758;BME280;59316;52.964;7.102;2022-12-07T16:27:34;101225.56;;;1.13;nan
70758;BME280;59316;52.964;7.102;2022-12-07T16:32:36;101228.28;;;1.07;nan
70758;BME280;59316;52.964;7.102;2022-12-07T16:37:40;101224.31;;;0.92;nan
70758;BME280;59316;52.964;7.102;2022-12-07T16:42:43;101223.78;;;0.76;nan
70758;BME280;59316;52.964;7.102;2022-12-07T16:47:45;101222.13;;;0.74;nan
70758;BME280;59316;52.964;7.102;2022-12-07T16:52:48;101220.19;;;0.84;nan
70758;BME280;59316;52.964;7.102;2022-12-07T16:57:50;101212.41;;;0.85;nan
70758;BME280;59316;52.964;7.102;2022-12-07T17:02:52;101214.44;;;1.10;nan
70758;BME280;59316;52.964;7.102;2022-12-07T17:07:55;101215.13;;;1.18;nan
70758;BME280;59316;52.964;7.102;2022-12-07T17:12:58;101202.84;;;1.28;nan
70758;BME280;59316;52.964;7.102;2022-12-07T17:18:00;101201.94;;;1.29;nan
70758;BME280;59316;52.964;7.102;2022-12-07T17:23:02;101183.59;;;1.40;nan
70758;BME280;59316;52.964;7.102;2022-12-07T17:28:05;101183.41;;;1.47;nan
70758;BME280;59316;52.964;7.102;2022-12-07T17:33:07;101175.81;;;1.41;nan
70758;BME280;59316;52.964;7.102;2022-12-07T17:38:09;101178.06;;;1.55;nan
70758;BME280;59316;52.964;7.102;2022-12-07T17:43:11;101175.06;;;1.36;nan
70758;BME280;59316;52.964;7.102;2022-12-07T17:48:13;101173.31;;;1.37;nan
70758;BME280;59316;52.964;7.102;2022-12-07T18:18:26;63551.88;;;-145.20;100.00
